Time;durP1;ratioP1;P1;durP2;ratioP2;P2;SDS_P1;SDS_P2;PMS_P1;PMS_P2;Temp;Humidity;BMP_temperature;BMP_pressure;BME280_temperature;BME280_humidity;BME280_pressure;Samples;Min_cycle;Max_cycle;Signal;HPM_P1;HPM_P2
2021/03/25 00:01:51;;;;;;;;;;;;;;;-0.44;64.21;100200.27;1763813;80;20223;-76
2021/03/25 00:04:19;;;;;;;;;;;;;;;-0.45;64.16;100197.28;1769116;80;20251;-76
2021/03/25 00:06:48;;;;;;;;;;;;;;;-0.47;64.01;100191.31;1767791;80;20222;-76
2021/03/25 00:09:19;;;;;;;;;;;;;;;-0.47;63.94;100191.77;1758835;81;22083;-76
2021/03/25 00:11:47;;;;;;;;;;;;;;;-0.48;63.88;100195.23;1762101;80;20371;-76
2021/03/25 00:14:16;;;;;;;;;;;;;;;-0.49;63.81;100184.47;1764066;80;20490;-76
2021/03/25 00:16:43;;;;;;;;;;;;;;;-0.50;63.77;100186.67;1778210;79;21113;-76
2021/03/25 00:19:13;;;;;;;;;;;;;;;-0.51;63.27;100186.28;1773141;79;20312;-76
2021/03/25 00:21:41;;;;;;;;;;;;;;;-0.53;63.19;100185.50;1754686;81;21969;-76
2021/03/25 00:24:10;;;;;;;;;;;;;;;-0.53;63.23;100181.61;1755003;81;20814;-76
2021/03/25 00:26:37;;;;;;;;;;;;;;;-0.55;63.02;100184.72;1744073;81;20245;-76
2021/03/25 00:29:04;;;;;;;;;;;;;;;-0.55;63.12;100178.23;1774405;80;20704;-76
2021/03/25 00:31:33;;;;;;;;;;;;;;;-0.55;62.88;100179.53;1767905;80;20291;-76
2021/03/25 00:34:00;;;;;;;;;;;;;;;-0.56;62.70;100173.95;1775883;80;22529;-75
2021/03/25 00:36:27;;;;;;;;;;;;;;;-0.56;62.70;100172.20;1770162;80;20468;-75
2021/03/25 00:38:56;;;;;;;;;;;;;;;-0.56;62.61;100167.46;1762175;81;20228;-75
2021/03/25 00:41:23;;;;;;;;;;;;;;;-0.57;62.38;100165.32;1773170;80;20676;-75
2021/03/25 00:43:52;;;;;;;;;;;;;;;-0.57;62.17;100170.51;1776742;79;20211;-75
2021/03/25 00:46:19;;;;;;;;;;;;;;;-0.59;62.06;100167.95;1770456;80;23435;-75
2021/03/25 00:48:49;;;;;;;;;;;;;;;-0.59;61.81;100168.40;1759141;81;20464;-76
2021/03/25 00:51:17;;;;;;;;;;;;;;;-0.60;61.70;100167.55;1760140;80;20503;-74
2021/03/25 00:53:44;;;;;;;;;;;;;;;-0.58;61.70;100171.38;1759544;80;20477;-75
2021/03/25 00:56:11;;;;;;;;;;;;;;;-0.59;61.66;100170.54;1763977;80;20242;-74
2021/03/25 00:58:38;;;;;;;;;;;;;;;-0.60;61.47;100173.20;1758488;80;23183;-74
2021/03/25 01:01:08;;;;;;;;;;;;;;;-0.61;61.26;100174.10;1761345;80;21229;-75
2021/03/25 01:03:35;;;;;;;;;;;;;;;-0.62;61.17;100170.66;1775797;80;20503;-75
2021/03/25 01:06:02;;;;;;;;;;;;;;;-0.62;61.29;100171.11;1774815;80;21749;-76
2021/03/25 01:08:31;;;;;;;;;;;;;;;-0.62;61.34;100165.92;1761008;80;20415;-75
2021/03/25 01:11:07;;;;;;;;;;;;;;;-0.62;61.38;100161.58;1758365;80;21894;-75
2021/03/25 01:13:38;;;;;;;;;;;;;;;-0.64;61.47;100158.66;1761033;80;20357;-75
2021/03/25 01:16:17;;;;;;;;;;;;;;;-0.61;61.74;100155.49;1884034;76;20286;-76
2021/03/25 01:18:47;;;;;;;;;;;;;;;-0.66;61.93;100154.83;1849660;77;20510;-75
2021/03/25 01:21:15;;;;;;;;;;;;;;;-0.67;62.20;100155.73;1846524;77;22049;-75
2021/03/25 01:23:42;;;;;;;;;;;;;;;-0.69;62.38;100152.78;1846248;77;20345;-76
2021/03/25 01:26:09;;;;;;;;;;;;;;;-0.70;62.56;100157.12;1849349;77;20247;-75
2021/03/25 01:28:37;;;;;;;;;;;;;;;-0.70;62.67;100151.94;1852499;77;20241;-75
2021/03/25 01:31:04;;;;;;;;;;;;;;;-0.69;62.91;100154.92;1855557;77;20496;-75
2021/03/25 01:33:31;;;;;;;;;;;;;;;-0.69;62.88;100150.19;1817941;77;22045;-75
2021/03/25 01:36:00;;;;;;;;;;;;;;;-0.72;62.94;100147.72;1854306;77;20418;-75
2021/03/25 01:38:27;;;;;;;;;;;;;;;-0.72;63.10;100149.86;1853631;77;20519;-75
2021/03/25 01:40:57;;;;;;;;;;;;;;;-0.74;63.07;100149.08;1833668;77;20269;-77
2021/03/25 01:43:37;;;;;;;;;;;;;;;-0.74;63.17;100146.48;1849713;77;20256;-75
2021/03/25 01:46:25;;;;;;;;;;;;;;;-0.76;63.16;100144.41;1855205;77;21878;-75
2021/03/25 01:48:55;;;;;;;;;;;;;;;-0.77;63.08;100144.02;1839495;77;21199;-75
2021/03/25 01:51:37;;;;;;;;;;;;;;;-0.77;63.11;100146.61;1790099;79;20483;-76
2021/03/25 01:54:36;;;;;;;;;;;;;;;-0.76;63.03;100147.00;1783595;80;20580;-76
2021/03/25 01:57:29;;;;;;;;;;;;;;;-0.75;62.97;100144.80;1778758;79;20574;-76
2021/03/25 02:00:15;;;;;;;;;;;;;;;-0.75;62.98;100149.98;1783332;79;22501;-76
2021/03/25 02:03:08;;;;;;;;;;;;;;;-0.75;62.86;100147.39;1789837;80;20246;-76
2021/03/25 02:05:41;;;;;;;;;;;;;;;-0.77;62.72;100141.84;1775553;80;20241;-75
2021/03/25 02:08:46;;;;;;;;;;;;;;;-0.76;62.65;100147.45;1791362;80;20238;-75
2021/03/25 02:11:20;;;;;;;;;;;;;;;-0.73;62.55;100149.92;1788292;80;20222;-74
2021/03/25 02:14:11;;;;;;;;;;;;;;;-0.72;62.52;100150.31;1788304;79;22490;-74
2021/03/25 02:16:51;;;;;;;;;;;;;;;-0.71;62.34;100148.11;1786914;80;20856;-77
2021/03/25 02:19:30;;;;;;;;;;;;;;;-0.70;62.30;100141.56;1789463;80;20217;-76
2021/03/25 02:22:21;;;;;;;;;;;;;;;-0.70;62.14;100144.16;1793108;80;20243;-76
2021/03/25 02:24:59;;;;;;;;;;;;;;;-0.69;61.96;100141.11;1763369;80;20513;-75
2021/03/25 02:27:47;;;;;;;;;;;;;;;-0.69;61.96;100150.19;1785295;79;23018;-75
2021/03/25 02:30:34;;;;;;;;;;;;;;;-0.68;61.85;100144.94;1794223;80;20277;-75
2021/03/25 02:33:04;;;;;;;;;;;;;;;-0.69;61.98;100144.55;1792610;79;20222;-75
2021/03/25 02:35:42;;;;;;;;;;;;;;;-0.70;62.03;100140.27;1796417;80;21300;-76
2021/03/25 02:38:16;;;;;;;;;;;;;;;-0.70;62.02;100142.02;1774095;80;20226;-76
2021/03/25 02:40:54;;;;;;;;;;;;;;;-0.71;62.06;100147.66;1795644;80;23042;-79
2021/03/25 02:43:42;;;;;;;;;;;;;;;-0.72;62.08;100143.83;1791707;80;20401;-79
2021/03/25 02:46:19;;;;;;;;;;;;;;;-0.72;62.13;100143.38;1790781;79;20226;-78
2021/03/25 02:48:49;;;;;;;;;;;;;;;-0.73;62.14;100142.98;1793663;79;22056;-78
2021/03/25 02:51:20;;;;;;;;;;;;;;;-0.72;62.16;100150.31;1796628;80;20226;-82
2021/03/25 02:53:48;;;;;;;;;;;;;;;-0.73;62.14;100142.14;1764762;80;22074;-81
2021/03/25 02:56:23;;;;;;;;;;;;;;;-0.74;62.12;100146.48;1779043;79;20808;-81
2021/03/25 02:58:57;;;;;;;;;;;;;;;-0.76;62.14;100143.11;1792619;79;20404;-81
2021/03/25 03:01:24;;;;;;;;;;;;;;;-0.79;62.02;100143.65;1793355;80;20230;-81
2021/03/25 03:04:11;;;;;;;;;;;;;;;-0.82;61.93;100148.50;1792938;79;20339;-78
2021/03/25 03:06:50;;;;;;;;;;;;;;;-0.87;62.06;100142.63;1772001;79;22082;-78
2021/03/25 03:09:23;;;;;;;;;;;;;;;-0.87;62.19;100149.98;1797036;78;20573;-78
2021/03/25 03:11:53;;;;;;;;;;;;;;;-0.87;62.27;100145.22;1775559;80;20214;-78
2021/03/25 03:14:30;;;;;;;;;;;;;;;-0.90;62.33;100142.30;1791263;79;21184;-78
2021/03/25 03:17:06;;;;;;;;;;;;;;;-0.91;62.32;100139.77;1746183;80;20209;-77
2021/03/25 03:19:42;;;;;;;;;;;;;;;-0.93;62.41;100136.38;1762942;80;22078;-79
2021/03/25 03:22:11;;;;;;;;;;;;;;;-0.95;62.48;100142.08;1783198;80;21908;-77
2021/03/25 03:24:52;;;;;;;;;;;;;;;-0.96;62.58;100137.35;1804298;79;20237;-78
2021/03/25 03:27:27;;;;;;;;;;;;;;;-0.96;62.66;100132.62;1791478;79;20218;-77
2021/03/25 03:29:56;;;;;;;;;;;;;;;-0.98;62.54;100136.98;1798901;79;20229;-78
2021/03/25 03:32:34;;;;;;;;;;;;;;;-0.99;62.50;100136.59;1801371;78;22489;-77
2021/03/25 03:35:19;;;;;;;;;;;;;;;-1.03;62.50;100135.02;1764899;79;20488;-79
2021/03/25 03:37:52;;;;;;;;;;;;;;;-1.06;62.47;100137.70;1789261;79;20265;-79
2021/03/25 03:40:24;;;;;;;;;;;;;;;-1.09;62.55;100132.19;1798057;79;20306;-79
2021/03/25 03:42:56;;;;;;;;;;;;;;;-1.11;62.54;100131.86;1801217;79;20209;-79
2021/03/25 03:45:24;;;;;;;;;;;;;;;-1.13;62.61;100137.55;1803292;78;22755;-79
2021/03/25 03:47:54;;;;;;;;;;;;;;;-1.13;62.57;100136.25;1796766;79;20550;-80
2021/03/25 03:50:29;;;;;;;;;;;;;;;-1.15;62.59;100132.42;1765740;79;20480;-78
2021/03/25 03:52:56;;;;;;;;;;;;;;;-1.18;62.65;100133.36;1802622;79;20241;-76
2021/03/25 03:55:23;;;;;;;;;;;;;;;-1.22;62.66;100131.78;1806483;79;20212;-78
2021/03/25 03:58:23;;;;;;;;;;;;;;;-1.22;62.87;100137.41;1798308;79;22052;-77
2021/03/25 04:00:57;;;;;;;;;;;;;;;-1.24;62.94;100140.06;1799844;79;21289;-77
2021/03/25 04:03:41;;;;;;;;;;;;;;;-1.25;63.10;100144.86;1798504;79;20448;-77
2021/03/25 04:06:13;;;;;;;;;;;;;;;-1.26;63.16;100143.59;1803663;79;20677;-78
2021/03/25 04:09:19;;;;;;;;;;;;;;;-1.25;63.30;100141.42;1835412;76;20612;-78
2021/03/25 04:11:54;;;;;;;;;;;;;;;-1.28;63.33;100150.13;1785544;77;20222;-79
2021/03/25 04:14:32;;;;;;;;;;;;;;;-1.27;63.37;100141.90;1784237;80;22073;-79
2021/03/25 04:17:07;;;;;;;;;;;;;;;-1.28;63.41;100147.53;1809390;78;20290;-79
2021/03/25 04:19:40;;;;;;;;;;;;;;;-1.28;63.52;100143.64;1786964;79;20485;-79
2021/03/25 04:22:31;;;;;;;;;;;;;;;-1.27;63.63;100145.78;1785901;79;20816;-79
2021/03/25 04:25:08;;;;;;;;;;;;;;;-1.29;63.60;100147.14;1797011;79;20244;-79
2021/03/25 04:28:00;;;;;;;;;;;;;;;-1.27;63.62;100148.38;1801356;77;22057;-79
2021/03/25 04:30:30;;;;;;;;;;;;;;;-1.25;63.63;100150.48;1793686;79;21649;-80
2021/03/25 04:32:58;;;;;;;;;;;;;;;-1.24;63.64;100154.77;1775421;79;20231;-79
2021/03/25 04:35:26;;;;;;;;;;;;;;;-1.22;63.70;100158.14;1795832;77;20229;-78
2021/03/25 04:37:53;;;;;;;;;;;;;;;-1.21;63.72;100155.50;1800475;77;20224;-79
2021/03/25 04:40:26;;;;;;;;;;;;;;;-1.18;63.68;100157.97;1807766;79;22631;-78
2021/03/25 04:42:54;;;;;;;;;;;;;;;-1.15;63.54;100162.23;1797816;79;20635;-79
2021/03/25 04:45:45;;;;;;;;;;;;;;;-1.12;63.50;100158.22;1800645;79;20212;-79
2021/03/25 04:48:19;;;;;;;;;;;;;;;-1.09;63.48;100158.55;1806527;78;20223;-78
2021/03/25 04:51:08;;;;;;;;;;;;;;;-1.06;63.33;100151.95;1810124;78;20226;-78
2021/03/25 04:53:37;;;;;;;;;;;;;;;-1.04;63.32;100153.63;1802005;79;22055;-78
2021/03/25 04:56:10;;;;;;;;;;;;;;;-1.00;63.33;100160.83;1819717;79;20244;-78
2021/03/25 04:58:42;;;;;;;;;;;;;;;-0.97;63.28;100144.70;1789975;79;20489;-77
2021/03/25 05:01:24;;;;;;;;;;;;;;;-0.94;62.91;100148.95;1799450;79;20324;-78
2021/03/25 05:03:59;;;;;;;;;;;;;;;-0.91;62.91;100146.24;1801485;79;20218;-77
2021/03/25 05:06:29;;;;;;;;;;;;;;;-0.85;62.95;100152.52;1803001;78;22131;-77
2021/03/25 05:08:59;;;;;;;;;;;;;;;-0.80;62.77;100154.47;1786245;78;20448;-78
2021/03/25 05:11:26;;;;;;;;;;;;;;;-0.77;62.74;100159.57;1807151;78;20234;-77
2021/03/25 05:13:57;;;;;;;;;;;;;;;-0.75;62.51;100160.36;1800413;79;20292;-77
2021/03/25 05:16:45;;;;;;;;;;;;;;;-0.77;62.51;100158.27;1819637;78;20244;-76
2021/03/25 05:19:20;;;;;;;;;;;;;;;-0.73;62.57;100168.08;1804715;78;22045;-78
2021/03/25 05:21:59;;;;;;;;;;;;;;;-0.73;62.39;100166.33;1794692;79;20271;-78
2021/03/25 05:24:38;;;;;;;;;;;;;;;-0.72;62.37;100170.61;1805938;78;20495;-76
2021/03/25 05:27:31;;;;;;;;;;;;;;;-0.70;62.38;100167.50;1802181;79;20253;-79
2021/03/25 05:29:59;;;;;;;;;;;;;;;-0.63;62.29;100166.83;1800554;79;20214;-79
2021/03/25 05:32:29;;;;;;;;;;;;;;;-0.57;62.19;100167.07;1792980;79;22051;-79
2021/03/25 05:34:58;;;;;;;;;;;;;;;-0.53;62.01;100168.19;1812681;79;20799;-79
2021/03/25 05:37:26;;;;;;;;;;;;;;;-0.48;61.83;100170.59;1820549;78;20494;-77
2021/03/25 05:39:53;;;;;;;;;;;;;;;-0.44;61.90;100173.03;1807352;79;20278;-81
2021/03/25 05:42:52;;;;;;;;;;;;;;;-0.37;61.69;100174.95;1793501;79;20390;-77
2021/03/25 05:45:23;;;;;;;;;;;;;;;-0.34;61.52;100176.97;1812742;78;22052;-74
2021/03/25 05:48:13;;;;;;;;;;;;;;;-0.30;61.10;100186.77;1820447;78;20655;-76
2021/03/25 05:50:51;;;;;;;;;;;;;;;-0.31;60.99;100186.37;1807041;79;20480;-74
2021/03/25 05:53:40;;;;;;;;;;;;;;;-0.28;61.03;100184.14;1776889;79;20547;-77
2021/03/25 05:56:20;;;;;;;;;;;;;;;-0.25;60.91;100187.91;1796258;79;20483;-74
2021/03/25 05:58:50;;;;;;;;;;;;;;;-0.24;60.90;100186.55;1794137;79;21222;-75
2021/03/25 06:01:30;;;;;;;;;;;;;;;-0.24;60.60;100193.04;1810769;78;20335;-73
2021/03/25 06:04:13;;;;;;;;;;;;;;;-0.27;60.67;100197.06;1788725;79;20224;-75
2021/03/25 06:06:44;;;;;;;;;;;;;;;-0.22;60.81;100199.47;1802422;79;20248;-74
2021/03/25 06:09:23;;;;;;;;;;;;;;;-0.16;60.78;100201.38;1819347;78;20293;-74
2021/03/25 06:11:54;;;;;;;;;;;;;;;-0.11;60.74;100202.49;1818497;78;21881;-74
2021/03/25 06:14:34;;;;;;;;;;;;;;;-0.04;60.88;100203.95;1802711;79;21067;-75
2021/03/25 06:17:26;;;;;;;;;;;;;;;0.04;60.92;100199.77;1802200;79;20269;-74
2021/03/25 06:20:14;;;;;;;;;;;;;;;0.13;60.93;100196.81;1827441;78;20239;-75
2021/03/25 06:23:04;;;;;;;;;;;;;;;0.22;60.53;100196.45;1821605;78;20234;-75
2021/03/25 06:25:50;;;;;;;;;;;;;;;0.27;60.43;100197.10;1833258;76;22104;-73
2021/03/25 06:28:21;;;;;;;;;;;;;;;0.32;60.33;100200.38;1805239;78;20376;-74
2021/03/25 06:31:09;;;;;;;;;;;;;;;0.41;60.11;100200.00;1778082;80;20216;-73
2021/03/25 06:33:57;;;;;;;;;;;;;;;0.49;60.31;100203.60;1762240;81;20227;-73
2021/03/25 06:36:55;;;;;;;;;;;;;;;0.62;59.99;100203.94;1766610;80;20228;-73
2021/03/25 06:39:29;;;;;;;;;;;;;;;0.66;59.38;100202.42;1793556;80;22042;-73
2021/03/25 06:42:15;;;;;;;;;;;;;;;0.72;59.70;100198.28;1791012;79;20226;-72
2021/03/25 06:44:49;;;;;;;;;;;;;;;0.82;59.47;100194.39;1764870;79;20248;-73
2021/03/25 06:47:37;;;;;;;;;;;;;;;0.91;59.22;100199.66;1783978;80;20328;-75
2021/03/25 06:50:07;;;;;;;;;;;;;;;0.98;58.98;100194.59;1762462;80;20208;-75
2021/03/25 06:52:37;;;;;;;;;;;;;;;0.99;58.28;100199.34;1773303;80;22053;-71
2021/03/25 06:55:08;;;;;;;;;;;;;;;0.99;58.32;100204.09;1777908;80;21112;-73
2021/03/25 06:57:42;;;;;;;;;;;;;;;0.98;58.11;100211.50;1786367;80;20214;-73
2021/03/25 07:00:13;;;;;;;;;;;;;;;0.98;58.04;100208.90;1769052;80;20223;-74
2021/03/25 07:02:42;;;;;;;;;;;;;;;1.00;58.16;100210.13;1762682;80;20217;-73
2021/03/25 07:05:11;;;;;;;;;;;;;;;1.02;58.00;100210.44;1779049;80;22049;-75
2021/03/25 07:07:40;;;;;;;;;;;;;;;1.02;58.06;100207.84;1768513;80;21331;-73
2021/03/25 07:10:11;;;;;;;;;;;;;;;1.03;58.17;100210.83;1772722;79;20275;-73
2021/03/25 07:12:41;;;;;;;;;;;;;;;1.04;58.17;100207.31;1771600;80;21194;-74
2021/03/25 07:15:15;;;;;;;;;;;;;;;1.05;58.06;100210.30;1788194;79;20239;-73
2021/03/25 07:17:43;;;;;;;;;;;;;;;1.06;58.08;100211.15;1787919;80;22072;-70
2021/03/25 07:20:24;;;;;;;;;;;;;;;1.04;58.08;100207.77;1761620;80;20280;-71
2021/03/25 07:23:01;;;;;;;;;;;;;;;1.06;58.32;100213.75;1791286;80;20238;-71
2021/03/25 07:25:30;;;;;;;;;;;;;;;1.09;58.21;100214.48;1787417;80;20284;-71
2021/03/25 07:27:59;;;;;;;;;;;;;;;1.08;58.01;100217.16;1770661;80;20738;-76
2021/03/25 07:30:42;;;;;;;;;;;;;;;1.06;58.11;100214.63;1779837;80;24234;-76
2021/03/25 07:33:12;;;;;;;;;;;;;;;1.04;58.25;100213.81;1781479;80;20380;-74
2021/03/25 07:35:43;;;;;;;;;;;;;;;1.06;58.50;100217.22;1792198;80;20215;-75
2021/03/25 07:38:22;;;;;;;;;;;;;;;1.10;58.65;100212.27;1792285;79;20219;-73
2021/03/25 07:41:11;;;;;;;;;;;;;;;1.14;58.71;100218.17;1783304;79;20214;-72
2021/03/25 07:43:50;;;;;;;;;;;;;;;1.17;58.80;100216.76;1793240;79;22058;-72
2021/03/25 07:46:46;;;;;;;;;;;;;;;1.23;58.83;100218.23;1790419;80;20364;-70
2021/03/25 07:49:19;;;;;;;;;;;;;;;1.26;58.82;100222.02;1741959;81;20233;-74
2021/03/25 07:51:52;;;;;;;;;;;;;;;1.24;58.80;100218.62;1764108;80;20221;-72
2021/03/25 07:54:35;;;;;;;;;;;;;;;1.21;58.90;100218.76;1775204;79;20186;-73
2021/03/25 07:57:15;;;;;;;;;;;;;;;1.22;58.88;100219.98;1768020;80;22979;-73
2021/03/25 07:59:51;;;;;;;;;;;;;;;1.19;58.97;100218.83;1787016;80;21757;-72
2021/03/25 08:02:34;;;;;;;;;;;;;;;1.20;59.00;100218.38;1767953;80;20287;-72
2021/03/25 08:05:22;;;;;;;;;;;;;;;1.21;59.00;100217.46;1790857;79;20218;-74
2021/03/25 08:07:51;;;;;;;;;;;;;;;1.23;58.87;100215.17;1770968;80;20207;-73
2021/03/25 08:10:37;;;;;;;;;;;;;;;1.28;58.93;100213.69;1771545;81;22138;-71
2021/03/25 08:13:17;;;;;;;;;;;;;;;1.31;58.88;100218.29;1763251;80;20392;-71
2021/03/25 08:16:08;;;;;;;;;;;;;;;1.34;58.61;100213.40;1757568;80;20287;-71
2021/03/25 08:19:11;;;;;;;;;;;;;;;1.35;58.89;100208.58;1734202;80;20230;-72
2021/03/25 08:22:05;;;;;;;;;;;;;;;1.37;58.64;100210.22;1757077;80;20291;-70
2021/03/25 08:24:53;;;;;;;;;;;;;;;1.37;58.85;100210.69;1735327;80;21646;-70
2021/03/25 08:27:30;;;;;;;;;;;;;;;1.39;59.02;100216.66;1690213;82;20410;-69
2021/03/25 08:30:16;;;;;;;;;;;;;;;1.39;58.99;100217.50;1758476;81;20224;-73
2021/03/25 08:33:11;;;;;;;;;;;;;;;1.40;59.29;100221.79;1749911;81;20484;-72
2021/03/25 08:36:07;;;;;;;;;;;;;;;1.45;59.54;100224.20;1782086;79;20214;-71
2021/03/25 08:38:45;;;;;;;;;;;;;;;1.49;59.73;100220.54;1765030;80;20347;-70
2021/03/25 08:41:21;;;;;;;;;;;;;;;1.57;59.85;100223.66;1783971;80;21124;-71
2021/03/25 08:43:56;;;;;;;;;;;;;;;1.61;59.82;100226.49;1779873;80;20238;-71
2021/03/25 08:46:42;;;;;;;;;;;;;;;1.65;59.77;100229.37;1781762;80;20274;-71
2021/03/25 08:49:41;;;;;;;;;;;;;;;1.68;59.87;100228.38;1765941;80;20280;-76
2021/03/25 08:52:12;;;;;;;;;;;;;;;1.72;59.83;100233.36;1764055;80;22053;-71
2021/03/25 08:54:49;;;;;;;;;;;;;;;1.79;59.58;100224.82;1781719;79;20337;-71
2021/03/25 08:57:28;;;;;;;;;;;;;;;1.82;59.54;100229.03;1770720;80;20252;-70
2021/03/25 09:00:12;;;;;;;;;;;;;;;1.86;59.30;100224.09;1787489;79;20460;-73
2021/03/25 09:02:45;;;;;;;;;;;;;;;1.91;59.32;100220.80;1784035;78;20409;-70
2021/03/25 09:05:22;;;;;;;;;;;;;;;1.97;59.30;100225.28;1776202;80;22053;-71
2021/03/25 09:07:50;;;;;;;;;;;;;;;2.04;59.04;100224.55;1773068;80;20265;-72
2021/03/25 09:10:37;;;;;;;;;;;;;;;2.09;58.62;100219.95;1777842;80;20206;-72
2021/03/25 09:13:04;;;;;;;;;;;;;;;2.11;58.20;100219.41;1786571;80;21299;-71
2021/03/25 09:15:32;;;;;;;;;;;;;;;2.12;58.04;100225.01;1770568;80;20229;-71
2021/03/25 09:18:07;;;;;;;;;;;;;;;2.15;57.96;100218.38;1780155;80;22778;-73
2021/03/25 09:20:37;;;;;;;;;;;;;;;2.18;57.88;100221.28;1754602;81;21300;-72
2021/03/25 09:23:31;;;;;;;;;;;;;;;2.19;57.80;100218.59;1741875;80;20264;-76
2021/03/25 09:26:08;;;;;;;;;;;;;;;2.22;57.83;100214.99;1783335;80;20320;-73
2021/03/25 09:29:00;;;;;;;;;;;;;;;2.30;57.56;100207.20;1838400;76;20213;-74
2021/03/25 09:31:30;;;;;;;;;;;;;;;2.28;57.35;100222.08;1809737;77;20264;-76
2021/03/25 09:34:00;;;;;;;;;;;;;;;2.28;57.09;100216.86;1791101;79;23008;-75
2021/03/25 09:36:33;;;;;;;;;;;;;;;2.30;57.17;100215.48;1792143;79;20386;-74
2021/03/25 09:39:06;;;;;;;;;;;;;;;2.34;57.21;100218.80;1799113;79;20256;-76
2021/03/25 09:41:40;;;;;;;;;;;;;;;2.37;57.33;100218.19;1792531;79;20925;-75
2021/03/25 09:44:23;;;;;;;;;;;;;;;2.41;57.37;100217.56;1802983;77;20257;-75
2021/03/25 09:47:00;;;;;;;;;;;;;;;2.44;57.13;100220.89;1758175;80;20366;-78
2021/03/25 09:49:36;;;;;;;;;;;;;;;2.47;57.15;100219.43;1757567;80;21117;-74
2021/03/25 09:52:28;;;;;;;;;;;;;;;2.51;57.08;100220.98;1778013;79;20282;-73
2021/03/25 09:54:59;;;;;;;;;;;;;;;2.56;56.99;100224.20;1771835;79;20275;-71
2021/03/25 09:57:35;;;;;;;;;;;;;;;2.59;57.05;100220.13;1784041;79;20269;-73
2021/03/25 10:00:25;;;;;;;;;;;;;;;2.64;58.16;100221.22;1767964;79;22065;-73
2021/03/25 10:03:01;;;;;;;;;;;;;;;2.73;57.71;100221.23;1752426;80;20272;-75
2021/03/25 10:05:36;;;;;;;;;;;;;;;2.79;57.38;100216.53;1760398;80;20275;-75
2021/03/25 10:08:19;;;;;;;;;;;;;;;2.83;57.20;100216.78;1764612;80;21621;-75
2021/03/25 10:10:57;;;;;;;;;;;;;;;2.87;57.30;100216.16;1766671;80;20284;-74
2021/03/25 10:13:43;;;;;;;;;;;;;;;2.93;57.28;100217.63;1756143;80;21936;-73
2021/03/25 10:16:33;;;;;;;;;;;;;;;2.99;57.25;100217.30;1761004;80;20366;-72
2021/03/25 10:19:07;;;;;;;;;;;;;;;3.03;57.23;100220.99;1703574;83;20342;-72
2021/03/25 10:21:57;;;;;;;;;;;;;;;3.13;57.00;100221.37;1827966;76;20209;-72
2021/03/25 10:24:32;;;;;;;;;;;;;;;3.13;57.01;100218.76;1803318;79;20247;-73
2021/03/25 10:27:13;;;;;;;;;;;;;;;3.16;56.83;100212.91;1790762;79;21886;-73
2021/03/25 10:29:40;;;;;;;;;;;;;;;3.20;56.77;100217.99;1790975;79;20548;-72
2021/03/25 10:32:15;;;;;;;;;;;;;;;3.24;56.67;100209.91;1785159;79;20294;-77
2021/03/25 10:34:42;;;;;;;;;;;;;;;3.30;56.62;100216.13;1806488;79;20526;-73
2021/03/25 10:37:30;;;;;;;;;;;;;;;3.38;56.78;100215.73;1805259;79;20277;-73
2021/03/25 10:40:10;;;;;;;;;;;;;;;3.47;56.57;100210.00;1806128;77;22064;-73
2021/03/25 10:42:39;;;;;;;;;;;;;;;3.56;56.53;100208.68;1808492;79;20656;-73
2021/03/25 10:45:28;;;;;;;;;;;;;;;3.63;56.42;100206.97;1776973;79;20779;-72
2021/03/25 10:48:06;;;;;;;;;;;;;;;3.71;56.27;100217.02;1744662;79;20280;-76
2021/03/25 10:50:48;;;;;;;;;;;;;;;3.82;56.12;100202.91;1882225;76;20178;-77
2021/03/25 10:53:18;;;;;;;;;;;;;;;3.86;56.12;100208.37;1802315;76;20267;-74
2021/03/25 10:55:47;;;;;;;;;;;;;;;3.92;56.00;100208.02;1819798;77;22968;-73
2021/03/25 10:58:24;;;;;;;;;;;;;;;3.98;55.75;100209.46;1838306;77;21743;-72
2021/03/25 11:01:07;;;;;;;;;;;;;;;4.01;55.77;100212.73;1836119;77;21055;-73
2021/03/25 11:03:37;;;;;;;;;;;;;;;4.09;55.77;100207.56;1820576;77;20718;-72
2021/03/25 11:06:06;;;;;;;;;;;;;;;4.18;55.89;100207.05;1835288;77;20201;-73
2021/03/25 11:08:39;;;;;;;;;;;;;;;4.29;55.71;100204.21;1845080;77;22037;-74
2021/03/25 11:11:14;;;;;;;;;;;;;;;4.44;55.72;100201.64;1817314;77;20726;-73
2021/03/25 11:13:43;;;;;;;;;;;;;;;4.60;55.41;100201.16;1828875;77;20235;-73
2021/03/25 11:16:18;;;;;;;;;;;;;;;4.76;55.65;100191.97;1817965;77;20299;-73
2021/03/25 11:18:50;;;;;;;;;;;;;;;4.98;55.85;100198.09;1822876;76;20788;-73
2021/03/25 11:21:28;;;;;;;;;;;;;;;5.26;55.47;100197.28;1822419;77;21930;-74
2021/03/25 11:24:16;;;;;;;;;;;;;;;5.48;55.42;100188.96;1814560;76;20226;-72
2021/03/25 11:26:44;;;;;;;;;;;;;;;5.67;54.38;100201.30;1833691;76;20230;-72
2021/03/25 11:29:16;;;;;;;;;;;;;;;5.80;53.90;100200.94;1829009;77;21054;-75
2021/03/25 11:35:23;;;;;;;;;;;;;;;5.84;52.67;100193.23;1830263;77;22168;-71
2021/03/25 11:37:51;;;;;;;;;;;;;;;5.83;53.07;100193.34;1831665;76;22061;-70
2021/03/25 11:40:26;;;;;;;;;;;;;;;5.91;53.11;100191.12;1819356;77;20264;-72
2021/03/25 11:43:06;;;;;;;;;;;;;;;5.97;53.31;100192.02;1815263;77;20766;-71
2021/03/25 11:45:40;;;;;;;;;;;;;;;6.11;53.47;100193.31;1824979;77;20239;-72
2021/03/25 11:48:27;;;;;;;;;;;;;;;6.28;53.25;100188.31;1813394;78;21906;-72
2021/03/25 11:50:59;;;;;;;;;;;;;;;6.41;53.03;100186.56;1794929;79;21318;-70
2021/03/25 11:53:33;;;;;;;;;;;;;;;6.49;52.56;100182.13;1803986;79;20403;-70
2021/03/25 11:56:02;;;;;;;;;;;;;;;6.49;52.44;100184.76;1786570;79;20240;-72
2021/03/25 11:58:30;;;;;;;;;;;;;;;6.53;52.59;100184.91;1818840;78;20271;-72
2021/03/25 12:01:23;;;;;;;;;;;;;;;6.59;52.34;100183.20;1812862;78;21882;-74
2021/03/25 12:03:54;;;;;;;;;;;;;;;6.62;52.30;100182.16;1746128;81;21327;-73
2021/03/25 12:06:33;;;;;;;;;;;;;;;6.66;52.62;100175.75;1737193;81;20818;-72
2021/03/25 12:09:12;;;;;;;;;;;;;;;6.71;52.24;100181.08;1773662;79;20524;-71
2021/03/25 12:11:44;;;;;;;;;;;;;;;6.69;52.01;100178.20;1786043;79;20238;-71
2021/03/25 12:14:14;;;;;;;;;;;;;;;6.66;51.99;100174.44;1786238;80;21089;-70
2021/03/25 12:16:45;;;;;;;;;;;;;;;6.66;52.32;100174.44;1809008;79;20272;-71
2021/03/25 12:19:14;;;;;;;;;;;;;;;6.71;52.30;100178.45;1803741;79;20228;-70
2021/03/25 12:21:43;;;;;;;;;;;;;;;6.77;52.35;100175.43;1787904;77;20248;-71
2021/03/25 12:24:11;;;;;;;;;;;;;;;6.82;52.26;100173.32;1810033;77;20572;-72
2021/03/25 12:26:38;;;;;;;;;;;;;;;6.84;52.13;100172.73;1811393;79;21889;-72
2021/03/25 12:29:06;;;;;;;;;;;;;;;6.90;52.53;100174.12;1806238;79;20357;-73
2021/03/25 12:31:37;;;;;;;;;;;;;;;6.93;52.09;100177.84;1815718;77;20263;-71
2021/03/25 12:34:08;;;;;;;;;;;;;;;6.86;52.21;100175.29;1810600;78;20221;-71
2021/03/25 12:36:37;;;;;;;;;;;;;;;6.87;52.36;100172.56;1818344;78;20239;-72
2021/03/25 12:39:07;;;;;;;;;;;;;;;7.01;52.64;100170.30;1815487;79;21834;-72
2021/03/25 12:41:40;;;;;;;;;;;;;;;7.12;51.90;100174.34;1794103;79;20407;-72
2021/03/25 12:44:08;;;;;;;;;;;;;;;7.15;52.14;100175.47;1814444;79;20426;-73
2021/03/25 12:46:36;;;;;;;;;;;;;;;7.18;51.82;100176.56;1815686;77;21166;-73
2021/03/25 12:49:04;;;;;;;;;;;;;;;7.18;51.93;100179.66;1768755;80;20210;-71
2021/03/25 12:51:33;;;;;;;;;;;;;;;7.19;52.01;100177.40;1801598;78;23021;-71
2021/03/25 12:54:03;;;;;;;;;;;;;;;7.08;52.06;100174.20;1818818;78;21096;-71
2021/03/25 12:56:34;;;;;;;;;;;;;;;6.95;52.02;100179.05;1795204;78;20240;-70
2021/03/25 12:59:07;;;;;;;;;;;;;;;6.80;52.68;100171.75;1805733;79;20264;-70
2021/03/25 13:01:35;;;;;;;;;;;;;;;6.73;52.93;100175.25;1808992;78;20209;-69
2021/03/25 13:04:04;;;;;;;;;;;;;;;6.64;53.31;100173.23;1811239;78;21890;-70
2021/03/25 13:06:32;;;;;;;;;;;;;;;6.53;53.36;100178.35;1812294;78;20219;-69
2021/03/25 13:09:01;;;;;;;;;;;;;;;6.44;53.60;100179.80;1815454;78;20271;-70
2021/03/25 13:11:30;;;;;;;;;;;;;;;6.36;54.01;100177.30;1808321;78;20310;-71
2021/03/25 13:13:59;;;;;;;;;;;;;;;6.31;54.23;100176.30;1815577;78;20217;-71
2021/03/25 13:16:27;;;;;;;;;;;;;;;6.33;54.46;100174.88;1812325;78;22134;-71
2021/03/25 13:18:55;;;;;;;;;;;;;;;6.40;54.56;100179.64;1812001;78;20498;-72
2021/03/25 13:21:23;;;;;;;;;;;;;;;6.47;54.58;100178.77;1810841;78;20280;-70
2021/03/25 13:23:52;;;;;;;;;;;;;;;6.60;54.66;100173.92;1810251;78;20227;-70
2021/03/25 13:26:21;;;;;;;;;;;;;;;6.88;54.83;100174.23;1804625;78;20515;-70
2021/03/25 13:28:50;;;;;;;;;;;;;;;7.25;53.33;100174.84;1818403;77;20502;-72
2021/03/25 13:31:18;;;;;;;;;;;;;;;7.59;52.88;100178.58;1802829;78;20643;-75